Time;durP1;ratioP1;P1;durP2;ratioP2;P2;SDS_P1;SDS_P2;PMS_P1;PMS_P2;Temp;Humidity;BMP_temperature;BMP_pressure;BME280_temperature;BME280_humidity;BME280_pressure;Samples;Min_cycle;Max_cycle;Signal;HPM_P1;HPM_P2
2023/02/21 02:14:45;;;;;;;0.63;0.50;;;30.00;46.10;;;;;;5031659;28;20271;-55
2023/02/21 02:17:22;;;;;;;0.50;0.50;;;30.00;46.10;;;;;;5044317;28;20652;-54
2023/02/21 02:20:20;;;;;;;1.75;0.65;;;30.00;46.00;;;;;;5038908;28;20438;-56
2023/02/21 02:23:28;;;;;;;1.45;0.73;;;30.00;46.10;;;;;;5048100;28;20255;-55
2023/02/21 02:26:25;;;;;;;0.98;0.70;;;30.10;46.10;;;;;;5045683;28;20199;-54
2023/02/21 02:29:13;;;;;;;0.68;0.60;;;30.10;46.10;;;;;;5051117;28;20196;-54
2023/02/21 02:32:09;;;;;;;1.02;0.70;;;30.10;45.80;;;;;;5050896;28;20225;-55
2023/02/21 02:35:07;;;;;;;1.15;0.43;;;30.10;46.30;;;;;;5029950;28;20196;-53
2023/02/21 02:37:42;;;;;;;0.77;0.60;;;30.20;45.60;;;;;;5021236;28;20263;-53
2023/02/21 02:40:21;;;;;;;0.45;0.40;;;30.20;45.70;;;;;;5031259;28;20218;-55
2023/02/21 02:43:02;;;;;;;0.60;0.40;;;30.20;45.70;;;;;;5032489;28;20219;-54
2023/02/21 02:45:38;;;;;;;0.82;0.60;;;30.20;45.70;;;;;;5030549;28;20203;-56
2023/02/21 02:48:16;;;;;;;1.38;0.47;;;30.20;45.70;;;;;;5045961;28;20206;-55
2023/02/21 02:50:50;;;;;;;1.65;0.70;;;30.20;45.60;;;;;;5042349;28;20236;-56
2023/02/21 02:53:23;;;;;;;0.85;0.60;;;30.30;45.50;;;;;;5031233;28;20611;-54
2023/02/21 02:55:57;;;;;;;1.25;0.70;;;30.30;45.30;;;;;;5030448;28;20215;-55
2023/02/21 02:58:30;;;;;;;1.73;0.73;;;30.30;45.30;;;;;;5030695;28;20279;-55
2023/02/21 03:01:13;;;;;;;0.77;0.40;;;30.30;45.30;;;;;;5033840;28;20199;-56
2023/02/21 03:03:58;;;;;;;0.50;0.50;;;30.30;45.00;;;;;;5037074;28;20678;-54
2023/02/21 03:06:41;;;;;;;1.85;0.75;;;30.40;45.80;;;;;;5034281;28;20447;-54
2023/02/21 03:09:18;;;;;;;0.73;0.50;;;30.40;45.30;;;;;;5034071;28;20652;-54
2023/02/21 03:11:54;;;;;;;0.88;0.50;;;30.40;45.20;;;;;;5034175;28;20219;-55
2023/02/21 03:14:28;;;;;;;0.77;0.50;;;30.40;45.20;;;;;;5033954;28;20196;-55
2023/02/21 03:17:03;;;;;;;0.50;0.50;;;30.40;45.20;;;;;;5033817;28;20563;-55
2023/02/21 03:19:36;;;;;;;1.45;0.60;;;30.50;45.20;;;;;;5034243;28;20238;-55
2023/02/21 03:22:12;;;;;;;0.38;0.38;;;30.50;45.20;;;;;;5034196;28;20212;-56
2023/02/21 03:24:45;;;;;;;0.73;0.52;;;30.50;45.20;;;;;;5033969;28;20678;-54
2023/02/21 03:27:16;;;;;;;1.40;0.47;;;30.60;45.20;;;;;;5033844;28;20204;-54
2023/02/21 03:29:49;;;;;;;0.60;0.47;;;30.60;45.00;;;;;;5034042;28;20582;-54
2023/02/21 03:34:54;;;;;;;0.60;0.55;;;30.60;44.60;;;;;;5034014;28;20191;-52
2023/02/21 03:37:34;;;;;;;1.23;0.50;;;30.60;44.40;;;;;;5039579;28;20678;-55
2023/02/21 03:40:07;;;;;;;0.50;0.50;;;30.70;44.60;;;;;;5053781;28;20199;-55
2023/02/21 03:42:38;;;;;;;2.03;0.60;;;30.70;44.70;;;;;;5053840;28;20216;-56
2023/02/21 03:45:09;;;;;;;1.77;0.57;;;30.70;44.70;;;;;;5053895;28;20199;-55
2023/02/21 03:47:39;;;;;;;1.20;0.60;;;30.80;44.60;;;;;;5053242;28;20550;-55
2023/02/21 03:50:10;;;;;;;0.55;0.45;;;30.70;44.40;;;;;;5033463;28;20620;-54
2023/02/21 03:52:43;;;;;;;0.40;0.40;;;30.80;44.40;;;;;;5033727;28;20216;-55
2023/02/21 03:55:14;;;;;;;0.77;0.50;;;30.80;44.40;;;;;;5033627;28;20204;-55
2023/02/21 03:57:44;;;;;;;0.65;0.60;;;30.80;44.20;;;;;;5033849;28;20652;-54
2023/02/21 04:00:16;;;;;;;1.10;0.60;;;30.90;44.30;;;;;;5033562;28;20215;-55
2023/02/21 04:02:47;;;;;;;0.50;0.45;;;30.90;44.30;;;;;;5033446;28;20216;-55
2023/02/21 04:05:18;;;;;;;0.57;0.50;;;30.90;44.10;;;;;;5033384;28;20599;-56
2023/02/21 04:07:50;;;;;;;0.70;0.50;;;30.90;44.20;;;;;;5042010;28;20709;-55
2023/02/21 04:10:21;;;;;;;0.95;0.50;;;30.90;44.10;;;;;;5052851;28;20227;-55
2023/02/21 04:12:51;;;;;;;0.52;0.52;;;31.00;44.10;;;;;;5053287;28;20226;-56
2023/02/21 04:15:22;;;;;;;0.85;0.40;;;31.00;44.00;;;;;;5053319;28;20202;-56
2023/02/21 04:17:53;;;;;;;0.80;0.52;;;31.00;43.90;;;;;;5052843;28;20199;-55
2023/02/21 04:20:23;;;;;;;1.08;0.50;;;31.00;43.60;;;;;;5053218;28;20211;-54
2023/02/21 04:22:56;;;;;;;1.13;0.50;;;31.10;43.70;;;;;;5053034;28;20302;-56
2023/02/21 04:25:27;;;;;;;0.80;0.60;;;31.10;43.80;;;;;;5046893;28;20196;-55
2023/02/21 04:27:57;;;;;;;0.73;0.47;;;31.10;43.80;;;;;;5033385;28;20203;-56
2023/02/21 04:30:28;;;;;;;0.98;0.52;;;31.10;43.80;;;;;;5038322;28;20211;-56
2023/02/21 04:33:02;;;;;;;0.40;0.40;;;31.10;43.80;;;;;;5052396;28;20699;-56
2023/02/21 04:35:33;;;;;;;3.47;0.60;;;31.10;43.80;;;;;;5052951;28;20195;-55
2023/02/21 04:38:05;;;;;;;1.27;0.70;;;31.20;44.00;;;;;;5052895;28;20683;-56
2023/02/21 04:40:36;;;;;;;0.82;0.60;;;31.20;43.90;;;;;;5046428;28;20188;-56
2023/02/21 04:43:07;;;;;;;1.17;0.55;;;31.20;43.90;;;;;;5032547;28;20216;-54
2023/02/21 04:45:37;;;;;;;0.60;0.50;;;31.20;43.90;;;;;;5032973;28;20196;-56
2023/02/21 04:48:08;;;;;;;0.85;0.50;;;31.20;43.90;;;;;;5032729;28;20200;-55
2023/02/21 04:50:39;;;;;;;0.77;0.60;;;31.20;43.90;;;;;;5032607;28;20224;-56
2023/02/21 04:53:11;;;;;;;1.33;0.50;;;31.20;43.90;;;;;;5033849;28;20224;-56
2023/02/21 04:55:42;;;;;;;1.00;0.50;;;31.20;43.90;;;;;;5051568;28;20195;-56
2023/02/21 04:58:13;;;;;;;1.02;0.55;;;31.30;43.90;;;;;;5052476;28;20206;-56
2023/02/21 05:00:43;;;;;;;1.50;0.60;;;31.30;43.90;;;;;;5052445;28;20199;-55
2023/02/21 05:03:14;;;;;;;2.13;0.70;;;31.30;43.80;;;;;;5052418;28;20219;-55
2023/02/21 05:05:45;;;;;;;1.13;0.90;;;31.40;43.90;;;;;;5052044;28;20202;-56
2023/02/21 05:08:17;;;;;;;3.05;1.40;;;31.40;44.00;;;;;;5052415;28;20535;-56
2023/02/21 05:10:48;;;;;;;3.25;1.23;;;31.40;44.00;;;;;;5052161;28;20226;-55
2023/02/21 05:13:19;;;;;;;3.10;1.50;;;31.40;44.00;;;;;;5051936;28;20223;-56
2023/02/21 05:15:50;;;;;;;4.65;1.92;;;31.40;43.90;;;;;;5051989;28;20195;-56
2023/02/21 05:18:22;;;;;;;4.38;2.15;;;31.50;44.00;;;;;;5052213;28;20230;-54
2023/02/21 05:20:52;;;;;;;6.75;2.65;;;31.50;44.00;;;;;;5052206;28;20569;-55
2023/02/21 05:23:34;;;;;;;5.90;2.63;;;31.50;43.80;;;;;;5051429;28;20213;-54
2023/02/21 05:26:06;;;;;;;6.18;2.60;;;31.50;43.70;;;;;;5051765;28;20233;-56
2023/02/21 05:28:37;;;;;;;5.13;2.35;;;31.50;43.80;;;;;;5052329;28;20199;-54
2023/02/21 05:31:08;;;;;;;6.22;2.80;;;31.50;43.80;;;;;;5051363;28;20230;-55
2023/02/21 05:33:39;;;;;;;5.60;2.80;;;31.50;43.70;;;;;;5052269;28;20206;-55
2023/02/21 05:36:10;;;;;;;6.18;3.25;;;31.50;44.20;;;;;;5051728;28;20542;-54
2023/02/21 05:38:51;;;;;;;7.53;3.45;;;31.50;43.40;;;;;;5051669;28;20206;-55
2023/02/21 05:41:22;;;;;;;6.88;3.08;;;31.50;43.30;;;;;;5050803;28;20215;-54
2023/02/21 05:43:53;;;;;;;6.80;3.55;;;31.60;43.30;;;;;;5051420;28;20573;-55
2023/02/21 05:46:26;;;;;;;6.03;3.28;;;31.60;43.30;;;;;;5051465;28;20199;-55
2023/02/21 05:48:57;;;;;;;7.50;3.55;;;31.60;43.30;;;;;;5051551;28;20205;-55
2023/02/21 05:51:28;;;;;;;7.80;3.97;;;31.60;43.20;;;;;;5050832;28;20327;-55
2023/02/21 05:54:01;;;;;;;7.20;3.45;;;31.60;43.20;;;;;;5051065;28;20685;-55
2023/02/21 05:56:32;;;;;;;8.27;3.65;;;31.70;43.20;;;;;;5051620;28;20206;-54
2023/02/21 05:59:02;;;;;;;7.15;3.58;;;31.70;43.20;;;;;;5051691;28;20199;-55
2023/02/21 06:01:33;;;;;;;6.95;3.78;;;31.70;43.20;;;;;;5051795;28;20211;-55
2023/02/21 06:04:04;;;;;;;7.03;3.65;;;31.70;43.20;;;;;;5051547;28;20202;-54
2023/02/21 06:06:35;;;;;;;7.10;3.10;;;31.70;43.20;;;;;;5051366;28;20214;-54
2023/02/21 06:09:08;;;;;;;6.10;3.33;;;31.70;43.20;;;;;;5051367;28;20217;-55
2023/02/21 06:11:40;;;;;;;6.30;3.30;;;31.70;43.20;;;;;;5051045;28;20227;-55
2023/02/21 06:14:17;;;;;;;7.30;3.67;;;31.80;43.20;;;;;;5051387;28;20199;-54
2023/02/21 06:16:48;;;;;;;6.00;3.20;;;31.70;43.10;;;;;;5051115;28;20199;-55
2023/02/21 06:19:19;;;;;;;5.40;3.17;;;31.70;43.10;;;;;;5051149;28;20195;-55
2023/02/21 06:21:50;;;;;;;5.38;3.10;;;31.70;43.20;;;;;;5051178;28;20211;-55
2023/02/21 06:24:23;;;;;;;6.93;3.25;;;31.80;43.30;;;;;;5051200;28;20198;-55
2023/02/21 06:26:58;;;;;;;8.57;3.83;;;31.80;43.40;;;;;;5050688;28;20374;-56
2023/02/21 06:29:28;;;;;;;7.20;3.40;;;31.80;43.30;;;;;;5040175;28;20213;-55
2023/02/21 06:32:00;;;;;;;5.25;2.80;;;31.80;43.40;;;;;;5041578;28;20230;-55
2023/02/21 06:34:31;;;;;;;7.10;3.28;;;31.80;43.40;;;;;;5053545;28;20190;-54
2023/02/21 06:37:02;;;;;;;6.95;3.45;;;31.80;43.30;;;;;;5054766;28;20199;-53
2023/02/21 06:39:34;;;;;;;5.07;3.17;;;31.80;43.30;;;;;;5054775;28;20199;-54
2023/02/21 06:42:05;;;;;;;6.55;3.17;;;31.80;43.30;;;;;;5054492;28;20215;-56
2023/02/21 06:44:36;;;;;;;5.05;2.65;;;31.80;43.20;;;;;;5054825;28;20681;-54
2023/02/21 06:47:06;;;;;;;5.53;3.28;;;31.80;43.10;;;;;;5045292;28;20191;-55
2023/02/21 06:49:37;;;;;;;5.82;3.10;;;31.80;43.00;;;;;;5039911;28;20191;-54
2023/02/21 06:52:08;;;;;;;4.55;3.00;;;31.80;43.00;;;;;;5054779;28;20241;-56
2023/02/21 06:54:41;;;;;;;5.18;2.88;;;31.80;43.10;;;;;;5054957;28;20195;-55
2023/02/21 06:57:11;;;;;;;6.18;3.00;;;31.80;43.20;;;;;;5054502;28;20201;-56
2023/02/21 06:59:42;;;;;;;5.38;3.00;;;31.80;43.20;;;;;;5054832;28;20195;-56
2023/02/21 07:02:19;;;;;;;5.28;2.75;;;31.80;43.20;;;;;;5054709;28;20215;-55
2023/02/21 07:04:50;;;;;;;6.22;3.17;;;31.80;43.20;;;;;;5054605;28;20241;-56
2023/02/21 07:07:21;;;;;;;5.82;2.83;;;31.80;43.20;;;;;;5054104;28;20202;-56
2023/02/21 07:09:53;;;;;;;4.50;2.55;;;31.80;43.20;;;;;;5053952;28;20203;-56
2023/02/21 07:12:24;;;;;;;6.70;3.20;;;31.80;43.20;;;;;;5053830;28;20577;-55
2023/02/21 07:14:55;;;;;;;4.43;2.50;;;31.70;43.10;;;;;;5054245;28;20206;-54
2023/02/21 07:17:26;;;;;;;4.55;2.90;;;31.80;43.20;;;;;;5054292;28;20195;-54
2023/02/21 07:20:01;;;;;;;4.70;2.75;;;31.70;43.10;;;;;;5054152;28;20208;-55
2023/02/21 07:22:36;;;;;;;6.40;2.90;;;31.70;43.10;;;;;;5036302;28;20258;-55
2023/02/21 07:25:09;;;;;;;4.22;2.60;;;31.70;43.10;;;;;;5054204;28;20244;-56
2023/02/21 07:27:40;;;;;;;3.72;2.35;;;31.70;43.00;;;;;;5054302;28;20210;-55
2023/02/21 07:30:11;;;;;;;4.35;2.45;;;31.70;43.00;;;;;;5054175;28;20202;-55
2023/02/21 07:32:42;;;;;;;3.60;2.40;;;31.70;43.00;;;;;;5054022;28;20234;-54
2023/02/21 07:35:13;;;;;;;3.80;2.40;;;31.70;43.10;;;;;;5054137;28;20198;-56
2023/02/21 07:37:44;;;;;;;3.83;2.60;;;31.70;43.00;;;;;;5053837;28;20191;-55
2023/02/21 07:40:16;;;;;;;4.15;2.65;;;31.60;43.40;;;;;;5054325;28;20207;-54
2023/02/21 07:42:47;;;;;;;5.13;2.72;;;31.60;42.80;;;;;;5053930;28;20230;-54
2023/02/21 07:45:19;;;;;;;4.47;2.63;;;31.60;42.70;;;;;;5053412;28;20728;-55
2023/02/21 07:47:52;;;;;;;3.80;2.47;;;31.60;42.70;;;;;;5053852;28;20199;-56
2023/02/21 07:50:22;;;;;;;2.70;2.10;;;31.60;42.60;;;;;;5053676;28;20257;-55
2023/02/21 07:52:53;;;;;;;3.75;2.53;;;31.50;42.50;;;;;;5053468;28;20230;-54
2023/02/21 07:55:26;;;;;;;3.70;1.90;;;31.50;42.50;;;;;;5053466;28;20655;-55
2023/02/21 07:57:56;;;;;;;4.32;2.30;;;31.40;42.50;;;;;;5052864;28;20249;-53
2023/02/21 08:00:30;;;;;;;4.38;2.22;;;31.50;42.60;;;;;;5053064;28;20551;-54
2023/02/21 08:03:01;;;;;;;4.35;2.40;;;31.40;42.50;;;;;;5053119;28;20232;-54
2023/02/21 08:05:32;;;;;;;3.42;2.20;;;31.40;42.50;;;;;;5052065;28;20219;-53
2023/02/21 08:08:02;;;;;;;4.65;2.60;;;31.40;42.60;;;;;;5053080;28;20662;-56
2023/02/21 08:10:35;;;;;;;3.95;2.20;;;31.40;42.60;;;;;;5053442;28;20221;-56
2023/02/21 08:13:06;;;;;;;3.45;2.20;;;31.30;42.50;;;;;;5053154;28;20227;-54
2023/02/21 08:15:37;;;;;;;2.83;1.77;;;31.30;42.60;;;;;;5052947;28;20199;-54
2023/02/21 08:18:07;;;;;;;3.58;2.03;;;31.30;42.50;;;;;;5052599;28;20191;-55
2023/02/21 08:20:38;;;;;;;3.17;2.17;;;31.30;42.50;;;;;;5053039;28;20195;-51
2023/02/21 08:23:09;;;;;;;2.92;1.65;;;31.20;42.50;;;;;;5051900;28;20241;-55
2023/02/21 08:25:41;;;;;;;2.67;1.98;;;31.20;42.50;;;;;;5050437;28;20210;-54
2023/02/21 08:28:12;;;;;;;4.28;2.17;;;31.20;42.50;;;;;;5035261;28;20196;-54
2023/02/21 08:30:43;;;;;;;3.15;1.95;;;31.20;42.50;;;;;;5032769;28;20207;-55
2023/02/21 08:33:13;;;;;;;2.25;1.65;;;31.10;42.40;;;;;;5032298;28;20239;-55
2023/02/21 08:35:44;;;;;;;3.50;2.00;;;31.10;42.40;;;;;;5033157;28;20688;-54
2023/02/21 08:38:15;;;;;;;2.92;1.80;;;31.10;42.40;;;;;;5045682;28;20218;-54
2023/02/21 08:40:47;;;;;;;2.55;1.70;;;31.00;42.30;;;;;;5049483;28;20203;-54
2023/02/21 08:43:18;;;;;;;3.05;1.63;;;31.00;42.20;;;;;;5052222;28;20219;-55
2023/02/21 08:45:49;;;;;;;3.15;2.10;;;31.00;42.30;;;;;;5052667;28;20199;-56
2023/02/21 08:48:19;;;;;;;3.28;1.80;;;31.00;42.30;;;;;;5052554;28;20565;-54
2023/02/21 08:50:51;;;;;;;3.03;1.70;;;31.00;42.30;;;;;;5052650;28;20207;-51
2023/02/21 08:53:21;;;;;;;2.10;1.70;;;30.90;42.30;;;;;;5052628;28;20288;-56
2023/02/21 08:55:54;;;;;;;3.10;1.70;;;30.90;42.30;;;;;;5038032;28;20203;-55
2023/02/21 08:58:25;;;;;;;3.67;1.85;;;30.90;42.30;;;;;;5031022;28;20196;-56
2023/02/21 09:00:55;;;;;;;2.70;1.65;;;30.90;42.50;;;;;;5032653;28;20196;-54
2023/02/21 09:03:26;;;;;;;2.28;1.70;;;30.90;42.50;;;;;;5032485;28;20197;-54
2023/02/21 09:05:57;;;;;;;2.55;1.63;;;30.80;42.40;;;;;;5032194;28;20196;-51
2023/02/21 09:08:29;;;;;;;3.70;2.13;;;30.80;42.50;;;;;;5046511;28;20199;-55
2023/02/21 09:11:02;;;;;;;1.92;1.50;;;30.80;42.50;;;;;;5052139;28;20199;-53
2023/02/21 09:13:33;;;;;;;3.42;1.88;;;30.70;42.30;;;;;;5051813;28;20493;-55
2023/02/21 09:16:05;;;;;;;2.60;1.55;;;30.70;42.40;;;;;;5051959;28;20195;-54
2023/02/21 09:18:36;;;;;;;2.25;1.60;;;30.70;42.40;;;;;;5052282;28;20199;-55
2023/02/21 09:21:08;;;;;;;3.42;1.70;;;30.70;42.40;;;;;;5052070;28;20690;-54
2023/02/21 09:23:39;;;;;;;1.98;1.45;;;30.60;42.40;;;;;;5052378;28;20222;-55
2023/02/21 09:26:11;;;;;;;3.35;1.67;;;30.60;42.50;;;;;;5052185;28;20639;-54
2023/02/21 09:28:42;;;;;;;1.90;1.50;;;30.60;42.50;;;;;;5052163;28;20291;-54
2023/02/21 09:31:13;;;;;;;3.13;1.60;;;30.50;42.50;;;;;;5051273;28;20709;-53
2023/02/21 09:33:43;;;;;;;2.50;1.58;;;30.50;42.60;;;;;;5051370;28;20195;-55
2023/02/21 09:36:15;;;;;;;3.25;1.95;;;30.50;42.60;;;;;;5051970;28;20203;-54
2023/02/21 09:38:45;;;;;;;1.98;1.63;;;30.50;42.70;;;;;;5051709;28;20195;-51
2023/02/21 09:41:18;;;;;;;2.50;1.75;;;30.50;42.70;;;;;;5051487;28;20203;-51
2023/02/21 09:43:52;;;;;;;2.67;1.42;;;30.40;42.70;;;;;;5051492;28;20202;-53
2023/02/21 09:46:31;;;;;;;2.20;1.65;;;30.40;42.70;;;;;;5051870;28;20203;-55
2023/02/21 09:49:02;;;;;;;3.15;1.77;;;30.40;42.70;;;;;;5051658;28;20191;-53
2023/02/21 09:51:35;;;;;;;2.80;1.70;;;30.40;43.40;;;;;;5051488;28;20231;-52
2023/02/21 09:54:08;;;;;;;1.75;1.45;;;30.30;43.40;;;;;;5051718;28;20199;-55
2023/02/21 09:56:42;;;;;;;2.47;1.98;;;30.30;42.80;;;;;;5051166;28;20756;-54
2023/02/21 09:59:14;;;;;;;1.75;1.58;;;30.20;42.70;;;;;;5051205;28;20667;-51
2023/02/21 10:01:55;;;;;;;2.05;1.80;;;30.30;42.80;;;;;;5051523;28;20589;-55
2023/02/21 10:04:38;;;;;;;1.85;1.65;;;30.20;42.70;;;;;;5051529;28;20199;-54
2023/02/21 10:07:14;;;;;;;3.10;1.90;;;30.20;42.70;;;;;;5051531;28;20560;-52
2023/02/21 10:09:51;;;;;;;3.00;1.75;;;30.10;42.70;;;;;;5051139;28;20202;-54
2023/02/21 10:12:27;;;;;;;3.20;1.88;;;30.10;42.70;;;;;;5051068;28;20571;-54
2023/02/21 10:15:25;;;;;;;2.38;1.88;;;30.10;42.80;;;;;;5051165;28;20208;-53
2023/02/21 10:18:02;;;;;;;2.03;1.63;;;30.00;42.80;;;;;;5048090;28;20250;-53
2023/02/21 10:20:36;;;;;;;2.00;1.70;;;30.00;43.40;;;;;;5051318;28;20195;-53
2023/02/21 10:23:15;;;;;;;2.22;1.77;;;30.00;42.90;;;;;;5051279;28;20230;-53
2023/02/21 10:25:47;;;;;;;2.42;1.80;;;29.90;42.90;;;;;;5051449;28;20298;-54
2023/02/21 10:28:23;;;;;;;3.05;2.05;;;29.90;42.90;;;;;;5051551;28;20207;-54
2023/02/21 10:30:56;;;;;;;2.55;2.00;;;29.90;43.00;;;;;;5051499;28;20191;-52
2023/02/21 10:33:28;;;;;;;1.80;1.55;;;29.80;43.00;;;;;;5047911;28;20222;-51
2023/02/21 10:35:59;;;;;;;2.33;1.75;;;29.80;43.00;;;;;;5043259;28;20188;-52
2023/02/21 10:38:29;;;;;;;2.90;2.05;;;29.80;43.00;;;;;;5045611;28;20290;-54
2023/02/21 10:41:01;;;;;;;3.05;2.03;;;29.80;43.00;;;;;;5050843;28;20205;-51
2023/02/21 10:43:38;;;;;;;2.88;1.88;;;29.70;43.00;;;;;;5051054;28;20203;-52
2023/02/21 10:46:14;;;;;;;3.38;2.08;;;29.80;43.10;;;;;;5050984;28;20206;-50
2023/02/21 10:48:48;;;;;;;2.83;2.00;;;29.70;43.00;;;;;;5050679;28;20206;-50
2023/02/21 10:51:30;;;;;;;2.30;1.80;;;29.70;43.00;;;;;;5050677;28;20219;-50
2023/02/21 10:54:21;;;;;;;2.22;1.85;;;29.70;43.10;;;;;;5050781;28;20233;-51
2023/02/21 10:56:53;;;;;;;2.70;2.03;;;29.60;43.10;;;;;;5048810;28;20254;-54
2023/02/21 10:59:28;;;;;;;2.95;2.00;;;29.60;43.10;;;;;;5030965;28;20239;-53
2023/02/21 11:02:00;;;;;;;2.63;1.80;;;29.50;43.10;;;;;;5030761;28;20584;-50
2023/02/21 11:04:33;;;;;;;2.35;1.95;;;29.50;43.20;;;;;;5031047;28;20211;-54
2023/02/21 11:07:08;;;;;;;3.58;1.98;;;29.50;43.30;;;;;;5033691;28;20207;-54
2023/02/21 11:09:42;;;;;;;2.38;1.90;;;29.40;43.20;;;;;;5050731;28;20195;-51
2023/02/21 11:12:29;;;;;;;2.58;1.95;;;29.50;43.30;;;;;;5049976;28;20231;-52
2023/02/21 11:15:20;;;;;;;2.35;1.95;;;29.40;43.30;;;;;;5050263;28;20196;-54
2023/02/21 11:18:06;;;;;;;3.15;1.90;;;29.40;43.40;;;;;;5050156;28;20195;-54
2023/02/21 11:20:37;;;;;;;3.28;1.67;;;29.40;43.40;;;;;;5051167;28;20195;-54
2023/02/21 11:23:19;;;;;;;2.45;2.05;;;29.40;43.40;;;;;;5053706;28;20220;-52
2023/02/21 11:25:51;;;;;;;3.05;2.00;;;29.30;43.40;;;;;;5054253;28;20222;-52
2023/02/21 11:28:23;;;;;;;2.72;2.00;;;29.30;43.40;;;;;;5054393;28;20196;-55
2023/02/21 11:31:16;;;;;;;2.22;1.58;;;29.20;43.30;;;;;;5054244;28;20195;-51
2023/02/21 11:33:57;;;;;;;2.58;1.83;;;29.20;43.40;;;;;;5054194;28;20223;-51
2023/02/21 11:36:31;;;;;;;2.65;2.03;;;29.20;43.40;;;;;;5054247;28;20199;-51
2023/02/21 11:39:17;;;;;;;3.00;2.22;;;29.10;43.40;;;;;;5053871;28;20203;-50
2023/02/21 11:41:52;;;;;;;2.85;1.95;;;29.10;43.50;;;;;;5053791;28;20220;-51
2023/02/21 11:44:28;;;;;;;2.90;1.80;;;29.00;43.50;;;;;;5054026;28;20543;-50
2023/02/21 11:47:10;;;;;;;3.95;1.80;;;29.00;43.60;;;;;;5053858;28;20199;-51
2023/02/21 11:50:03;;;;;;;3.58;2.30;;;29.00;43.70;;;;;;5053743;28;20203;-49
2023/02/21 11:52:39;;;;;;;2.58;2.17;;;29.00;43.70;;;;;;5053657;28;20227;-50
2023/02/21 11:55:15;;;;;;;2.60;1.88;;;29.00;43.70;;;;;;5053726;28;20195;-49
2023/02/21 11:57:51;;;;;;;1.98;1.83;;;28.90;43.70;;;;;;5053855;28;20203;-53
2023/02/21 12:00:31;;;;;;;2.35;2.13;;;28.90;43.70;;;;;;5053781;28;20222;-51
2023/02/21 12:03:40;;;;;;;1.90;1.73;;;28.90;43.80;;;;;;5053641;28;20237;-50
2023/02/21 12:06:18;;;;;;;2.40;1.73;;;28.80;43.80;;;;;;5053597;28;20200;-51
2023/02/21 12:08:54;;;;;;;2.22;2.00;;;28.80;44.30;;;;;;5053958;28;20231;-51
2023/02/21 12:11:39;;;;;;;2.53;2.13;;;28.80;43.80;;;;;;5053227;28;20222;-50
2023/02/21 12:14:28;;;;;;;3.25;2.25;;;28.70;43.70;;;;;;5036988;28;20529;-52
2023/02/21 12:17:08;;;;;;;2.28;2.08;;;28.70;43.80;;;;;;5033578;28;20196;-54
2023/02/21 12:20:05;;;;;;;2.42;2.20;;;28.70;43.80;;;;;;5033584;28;20222;-54
2023/02/21 12:22:53;;;;;;;2.78;2.00;;;28.60;43.70;;;;;;5033351;28;20305;-52
2023/02/21 12:25:31;;;;;;;2.20;1.95;;;28.60;43.80;;;;;;5033394;28;20196;-53
2023/02/21 12:28:12;;;;;;;3.15;2.05;;;28.60;43.90;;;;;;5033572;28;20199;-53
2023/02/21 12:30:59;;;;;;;2.28;2.08;;;28.50;43.90;;;;;;5035647;28;20188;-50
2023/02/21 12:33:39;;;;;;;3.03;2.30;;;28.50;44.00;;;;;;5032913;28;20220;-50
2023/02/21 12:36:26;;;;;;;3.95;2.30;;;28.50;44.00;;;;;;5045149;28;20191;-51
2023/02/21 12:39:04;;;;;;;2.28;2.03;;;28.40;44.10;;;;;;5052702;28;20200;-53
2023/02/21 12:41:49;;;;;;;2.97;1.98;;;28.40;44.00;;;;;;5052417;28;20224;-53
2023/02/21 12:44:23;;;;;;;3.13;2.00;;;28.40;44.10;;;;;;5052467;28;20199;-54
2023/02/21 12:46:59;;;;;;;2.85;2.25;;;28.40;44.10;;;;;;5052347;28;20207;-54
2023/02/21 12:49:36;;;;;;;2.72;2.42;;;28.40;44.10;;;;;;5051537;28;20273;-55
2023/02/21 12:52:16;;;;;;;3.08;2.25;;;28.30;44.00;;;;;;5050538;28;20215;-51
2023/02/21 12:54:54;;;;;;;2.50;2.20;;;28.30;44.10;;;;;;5052366;28;20598;-52
2023/02/21 12:57:29;;;;;;;3.17;2.03;;;28.30;44.10;;;;;;5052476;28;20195;-54
2023/02/21 13:00:11;;;;;;;2.75;2.55;;;28.20;44.10;;;;;;5052516;28;20206;-54
2023/02/21 13:02:51;;;;;;;3.05;2.05;;;28.20;44.10;;;;;;5052548;28;20219;-52
2023/02/21 13:05:27;;;;;;;4.28;2.38;;;28.20;44.20;;;;;;5052131;28;20202;-49
2023/02/21 13:08:04;;;;;;;2.45;2.20;;;28.10;44.20;;;;;;5051864;28;20557;-52
2023/02/21 13:10:52;;;;;;;2.50;2.17;;;28.10;44.30;;;;;;5052495;28;20200;-51
2023/02/21 13:13:27;;;;;;;3.00;2.00;;;28.10;44.30;;;;;;5051925;28;20572;-52
2023/02/21 13:15:58;;;;;;;2.50;2.30;;;28.10;44.40;;;;;;5052022;28;20195;-52
2023/02/21 13:18:31;;;;;;;2.95;2.58;;;28.10;44.40;;;;;;5052119;28;20600;-52
2023/02/21 13:21:10;;;;;;;3.33;2.03;;;28.00;44.30;;;;;;5051870;28;20234;-51
2023/02/21 13:23:48;;;;;;;2.90;2.33;;;28.00;44.40;;;;;;5052120;28;20196;-52
2023/02/21 13:26:38;;;;;;;2.22;1.92;;;28.00;44.40;;;;;;5052085;28;20191;-51
2023/02/21 13:29:19;;;;;;;3.45;2.33;;;28.00;44.50;;;;;;5051858;28;20195;-52
2023/02/21 13:31:52;;;;;;;2.70;2.30;;;27.90;45.00;;;;;;5051220;28;20569;-49
2023/02/21 13:34:26;;;;;;;3.15;2.28;;;27.90;44.50;;;;;;5051317;28;20699;-53
2023/02/21 13:37:01;;;;;;;2.70;2.30;;;27.90;44.50;;;;;;5051637;28;20198;-52
2023/02/21 13:39:37;;;;;;;2.85;2.33;;;27.90;44.60;;;;;;5051675;28;20199;-52
2023/02/21 13:42:10;;;;;;;2.50;2.22;;;27.80;44.60;;;;;;5051475;28;20743;-51
2023/02/21 13:44:46;;;;;;;3.17;2.25;;;27.80;44.60;;;;;;5051431;28;20210;-53
2023/02/21 13:47:18;;;;;;;3.25;2.35;;;27.80;44.70;;;;;;5051618;28;20216;-52
2023/02/21 13:49:56;;;;;;;2.60;2.20;;;27.70;44.60;;;;;;5051433;28;20674;-50
2023/02/21 13:52:53;;;;;;;2.38;2.17;;;27.70;44.70;;;;;;5051687;28;20211;-54
2023/02/21 13:55:30;;;;;;;2.25;2.00;;;27.70;44.70;;;;;;5051615;28;20192;-50
2023/02/21 13:58:34;;;;;;;2.65;1.98;;;27.70;44.70;;;;;;5051042;28;20257;-54
2023/02/21 14:01:39;;;;;;;2.83;2.17;;;27.60;44.70;;;;;;5051313;28;20203;-49
2023/02/21 14:04:45;;;;;;;2.92;2.53;;;27.60;44.70;;;;;;5051729;28;20199;-52
2023/02/21 14:07:16;;;;;;;2.83;2.30;;;27.60;44.70;;;;;;5051278;28;20203;-56
2023/02/21 14:09:49;;;;;;;3.03;1.92;;;27.60;44.80;;;;;;5051262;28;20574;-53
2023/02/21 14:12:26;;;;;;;2.95;2.20;;;27.60;44.80;;;;;;5051259;28;20219;-49
2023/02/21 14:15:07;;;;;;;2.40;2.20;;;27.50;44.80;;;;;;5051167;28;20227;-52
2023/02/21 14:17:39;;;;;;;2.70;2.20;;;27.50;44.90;;;;;;5051347;28;20195;-53
2023/02/21 14:20:18;;;;;;;2.22;2.03;;;27.50;44.90;;;;;;5047928;28;20195;-51
2023/02/21 14:22:52;;;;;;;2.90;2.22;;;27.50;45.00;;;;;;5051457;28;20219;-51
2023/02/21 14:25:26;;;;;;;2.72;2.05;;;27.50;45.00;;;;;;5051252;28;20195;-53
2023/02/21 14:27:59;;;;;;;2.25;1.90;;;27.40;44.90;;;;;;5051526;28;20195;-54
2023/02/21 14:30:36;;;;;;;3.10;2.33;;;27.40;44.90;;;;;;5051376;28;20202;-51
2023/02/21 14:33:23;;;;;;;2.50;2.17;;;27.40;45.00;;;;;;5040833;28;20207;-53
2023/02/21 14:36:04;;;;;;;3.45;2.17;;;27.40;45.00;;;;;;5032640;28;20219;-54
2023/02/21 14:38:41;;;;;;;4.20;2.20;;;27.40;45.00;;;;;;5051212;28;20203;-53
2023/02/21 14:41:32;;;;;;;2.38;2.00;;;27.40;45.10;;;;;;5050911;28;20207;-52
2023/02/21 14:44:19;;;;;;;2.88;2.05;;;27.30;45.10;;;;;;5050588;28;20575;-54
2023/02/21 14:47:12;;;;;;;2.65;2.03;;;27.30;45.10;;;;;;5050639;28;20528;-51
2023/02/21 14:50:03;;;;;;;2.65;2.30;;;27.30;45.10;;;;;;5050686;28;20239;-52
2023/02/21 14:52:51;;;;;;;3.83;2.20;;;27.30;45.10;;;;;;5034852;28;20218;-52
2023/02/21 14:55:42;;;;;;;2.45;2.25;;;27.30;45.20;;;;;;5033707;28;20208;-53
2023/02/21 14:59:01;;;;;;;3.13;2.10;;;27.20;45.10;;;;;;5034663;28;20563;-52
2023/02/21 15:01:57;;;;;;;3.95;2.30;;;27.20;45.20;;;;;;5015583;28;20239;-54
2023/02/21 15:04:36;;;;;;;2.47;2.00;;;27.20;45.20;;;;;;5034748;28;20200;-49
2023/02/21 15:07:20;;;;;;;2.70;2.03;;;27.20;45.30;;;;;;5037562;28;20612;-53
2023/02/21 15:10:09;;;;;;;2.28;2.08;;;27.10;45.30;;;;;;5054274;28;20554;-54
2023/02/21 15:12:44;;;;;;;2.20;2.00;;;27.10;45.30;;;;;;5054163;28;20221;-54
2023/02/21 15:15:20;;;;;;;4.13;2.63;;;27.10;45.30;;;;;;5054305;28;20218;-51
2023/02/21 15:18:03;;;;;;;2.00;1.80;;;27.10;45.40;;;;;;5054566;28;20573;-50
2023/02/21 15:20:35;;;;;;;2.25;2.03;;;27.10;45.40;;;;;;5054656;28;20666;-53
2023/02/21 15:23:15;;;;;;;2.42;2.22;;;27.10;45.40;;;;;;5054434;28;20222;-52
2023/02/21 15:25:54;;;;;;;3.03;2.30;;;27.10;45.40;;;;;;5054422;28;20200;-54
2023/02/21 15:28:26;;;;;;;2.45;2.08;;;27.00;45.40;;;;;;5054301;28;20635;-55
2023/02/21 15:31:03;;;;;;;2.92;2.00;;;27.00;45.40;;;;;;5053866;28;20568;-53
2023/02/21 15:33:37;;;;;;;2.45;2.03;;;27.00;45.40;;;;;;5053722;28;20282;-54
2023/02/21 15:36:15;;;;;;;2.63;2.20;;;27.00;45.50;;;;;;5054030;28;20200;-50
2023/02/21 15:38:48;;;;;;;2.75;1.92;;;27.00;45.50;;;;;;5054250;28;20203;-50
2023/02/21 15:41:28;;;;;;;2.88;2.20;;;27.00;45.50;;;;;;5053636;28;20191;-52
2023/02/21 15:44:03;;;;;;;2.85;2.08;;;26.90;45.50;;;;;;5053577;28;20197;-54
2023/02/21 15:46:41;;;;;;;2.15;1.83;;;26.90;45.60;;;;;;5053999;28;20199;-54
2023/02/21 15:49:21;;;;;;;2.65;2.22;;;26.90;45.60;;;;;;5053875;28;20199;-54